JYH1331 ZSWX-ZYTX
Flight info
| Callsign | JYH1331 |
|---|---|
| Flight time | N/A |
| Altitude | 33100 |
| Route | PIMOL A593 LAGAL W178 RUXEL H28 URBAD W172 IGDEG W173 NIXEP W8 DOBGA W202 UDETI A588 TOSID |
| Aircraft | B738/M-SADE2E3FGHIJ3J5LM1ORVWY/HB1 |
Departure
| Time | 2026-05-01 13:13 |
|---|---|
| Airport | Sunan Shuofang International Airport (ZSWX) |
Arrival
| Time | N/A |
|---|---|
| Airport | Shenyang Taoxian International Airport (ZYTX) |
| Time | Latitude | Longitude | Altitude | Speed | Heading |
|---|---|---|---|---|---|
| 2026-05-01 12:31 | 31.50651 | 120.43027 | 25 ft | 0 kts | 290° |
| 2026-05-01 12:52 | 31.50649 | 120.43032 | 25 ft | 2 kts | 291° |
| 2026-05-01 12:52 | 31.50641 | 120.43052 | 25 ft | 3 kts | 306° |
| 2026-05-01 12:53 | 31.50611 | 120.43080 | 25 ft | 3 kts | 345° |
| 2026-05-01 12:53 | 31.50592 | 120.43083 | 25 ft | 3 kts | 9° |
| 2026-05-01 12:53 | 31.50581 | 120.43080 | 25 ft | 0 kts | 20° |
| 2026-05-01 13:07 | 31.51016 | 120.43358 | 25 ft | 5 kts | 18° |
| 2026-05-01 13:07 | 31.51064 | 120.43377 | 25 ft | 5 kts | 19° |
| 2026-05-01 13:07 | 31.51095 | 120.43391 | 25 ft | 5 kts | 21° |
| 2026-05-01 13:08 | 31.51126 | 120.43422 | 25 ft | 5 kts | 75° |
| 2026-05-01 13:08 | 31.51127 | 120.43446 | 25 ft | 4 kts | 96° |
| 2026-05-01 13:08 | 31.51120 | 120.43480 | 25 ft | 4 kts | 108° |
| 2026-05-01 13:08 | 31.51110 | 120.43511 | 25 ft | 4 kts | 110° |
| 2026-05-01 13:09 | 31.51107 | 120.43521 | 25 ft | 0 kts | 110° |
| 2026-05-01 13:10 | 31.51103 | 120.43534 | 25 ft | 5 kts | 110° |
| 2026-05-01 13:10 | 31.51087 | 120.43585 | 25 ft | 5 kts | 110° |
| 2026-05-01 13:11 | 31.51075 | 120.43618 | 25 ft | 4 kts | 120° |
| 2026-05-01 13:11 | 31.51055 | 120.43624 | 25 ft | 1 kts | 199° |
| 2026-05-01 13:11 | 31.51054 | 120.43624 | 25 ft | 0 kts | 200° |
| 2026-05-01 13:12 | 31.50903 | 120.43559 | 25 ft | 59 kts | 200° |
| 2026-05-01 13:12 | 31.50288 | 120.43295 | 25 ft | 128 kts | 200° |
| 2026-05-01 13:12 | 31.49289 | 120.42871 | 248 ft | 165 kts | 199° |
| 2026-05-01 13:13 | 31.48244 | 120.42400 | 1201 ft | 155 kts | 201° |
| 2026-05-01 13:13 | 31.47245 | 120.41931 | 2028 ft | 158 kts | 197° |
| 2026-05-01 13:13 | 31.46164 | 120.41492 | 2629 ft | 168 kts | 196° |
| 2026-05-01 13:13 | 31.45073 | 120.41037 | 3404 ft | 167 kts | 196° |
| 2026-05-01 13:14 | 31.43921 | 120.40549 | 3894 ft | 187 kts | 197° |
| 2026-05-01 13:14 | 31.42609 | 120.39990 | 4222 ft | 213 kts | 198° |
| 2026-05-01 13:14 | 31.41173 | 120.39374 | 4797 ft | 224 kts | 199° |
| 2026-05-01 13:14 | 31.39848 | 120.38432 | 5639 ft | 228 kts | 223° |
| 2026-05-01 13:15 | 31.39033 | 120.36830 | 6450 ft | 234 kts | 252° |
| 2026-05-01 13:15 | 31.39002 | 120.34915 | 7234 ft | 242 kts | 285° |
| 2026-05-01 13:15 | 31.39938 | 120.33280 | 7995 ft | 249 kts | 321° |
| 2026-05-01 13:15 | 31.41539 | 120.32517 | 8746 ft | 253 kts | 351° |
| 2026-05-01 13:16 | 31.43283 | 120.32350 | 9500 ft | 256 kts | 355° |
| 2026-05-01 13:16 | 31.45069 | 120.32159 | 10242 ft | 260 kts | 353° |
| 2026-05-01 13:16 | 31.46871 | 120.31913 | 10995 ft | 262 kts | 352° |
| 2026-05-01 13:17 | 31.52397 | 120.31255 | 13141 ft | 272 kts | 359° |
| 2026-05-01 13:17 | 31.54316 | 120.31409 | 13725 ft | 282 kts | 3° |
| 2026-05-01 13:18 | 31.58402 | 120.31574 | 14496 ft | 308 kts | 345° |
| 2026-05-01 13:18 | 31.60456 | 120.30708 | 14777 ft | 321 kts | 328° |
| 2026-05-01 13:18 | 31.62386 | 120.29276 | 15056 ft | 336 kts | 321° |
| 2026-05-01 13:18 | 31.64314 | 120.27596 | 15301 ft | 354 kts | 319° |
| 2026-05-01 13:19 | 31.66354 | 120.25834 | 15531 ft | 372 kts | 320° |
| 2026-05-01 13:19 | 31.68505 | 120.24026 | 15767 ft | 388 kts | 321° |
| 2026-05-01 13:19 | 31.72971 | 120.20306 | 16858 ft | 396 kts | 320° |
| 2026-05-01 13:20 | 31.75223 | 120.18422 | 17467 ft | 398 kts | 320° |
| 2026-05-01 13:20 | 31.77472 | 120.16509 | 18042 ft | 401 kts | 319° |
| 2026-05-01 13:20 | 31.79735 | 120.14578 | 18609 ft | 403 kts | 319° |
| 2026-05-01 13:21 | 31.84263 | 120.10714 | 19707 ft | 406 kts | 319° |
| 2026-05-01 13:21 | 31.86553 | 120.08756 | 20223 ft | 408 kts | 319° |
| 2026-05-01 13:21 | 31.88855 | 120.06789 | 20724 ft | 410 kts | 319° |
| 2026-05-01 13:21 | 31.91167 | 120.04812 | 21200 ft | 412 kts | 319° |
| 2026-05-01 13:22 | 31.93488 | 120.02827 | 21669 ft | 413 kts | 319° |
| 2026-05-01 13:22 | 31.95819 | 120.00831 | 22111 ft | 415 kts | 319° |
| 2026-05-01 13:22 | 31.98156 | 119.98830 | 22542 ft | 417 kts | 319° |
| 2026-05-01 13:22 | 32.00519 | 119.96837 | 22950 ft | 418 kts | 319° |
| 2026-05-01 13:23 | 32.02882 | 119.94830 | 23348 ft | 420 kts | 319° |
| 2026-05-01 13:23 | 32.05255 | 119.92802 | 23729 ft | 421 kts | 319° |
| 2026-05-01 13:23 | 32.07628 | 119.90767 | 24096 ft | 423 kts | 319° |
| 2026-05-01 13:23 | 32.10010 | 119.88721 | 24421 ft | 425 kts | 319° |
| 2026-05-01 13:24 | 32.12406 | 119.86660 | 24725 ft | 427 kts | 319° |
| 2026-05-01 13:24 | 32.14811 | 119.84590 | 25040 ft | 429 kts | 319° |
| 2026-05-01 13:24 | 32.17229 | 119.82507 | 25318 ft | 432 kts | 319° |
| 2026-05-01 13:25 | 32.22100 | 119.78310 | 25922 ft | 435 kts | 319° |
| 2026-05-01 13:25 | 32.24551 | 119.76196 | 26182 ft | 437 kts | 319° |
| 2026-05-01 13:25 | 32.27022 | 119.74088 | 26468 ft | 439 kts | 320° |
| 2026-05-01 13:25 | 32.29510 | 119.71985 | 26737 ft | 441 kts | 320° |
| 2026-05-01 13:26 | 32.32006 | 119.69863 | 26991 ft | 443 kts | 320° |
| 2026-05-01 13:26 | 32.34507 | 119.67729 | 27260 ft | 444 kts | 320° |
| 2026-05-01 13:26 | 32.37014 | 119.65586 | 27503 ft | 446 kts | 320° |
| 2026-05-01 13:26 | 32.39531 | 119.63433 | 27756 ft | 447 kts | 320° |
| 2026-05-01 13:27 | 32.40347 | 119.62734 | 27838 ft | 448 kts | 320° |